createdAt,value
2018-01-01T00:00:16.384Z,991.96
2018-01-01T00:00:57.405Z,991.95
2018-01-01T00:01:38.179Z,991.91
2018-01-01T00:02:18.619Z,991.84
2018-01-01T00:02:59.479Z,991.97
2018-01-01T00:03:40.216Z,991.79
2018-01-01T00:04:20.560Z,991.87
2018-01-01T00:05:01.394Z,991.85
2018-01-01T00:05:42.691Z,991.93
2018-01-01T00:06:25.418Z,991.79
2018-01-01T00:07:06.075Z,991.79
2018-01-01T00:07:46.489Z,991.82
2018-01-01T00:08:27.094Z,991.75
2018-01-01T00:09:07.804Z,991.8
2018-01-01T00:09:48.777Z,991.77
2018-01-01T00:10:29.114Z,991.8
2018-01-01T00:11:10.184Z,991.82
2018-01-01T00:11:50.614Z,991.77
2018-01-01T00:12:31.100Z,991.79
2018-01-01T00:13:12.207Z,991.55
2018-01-01T00:13:52.973Z,991.63
2018-01-01T00:14:34.137Z,991.75
2018-01-01T00:15:14.995Z,991.52
2018-01-01T00:15:55.380Z,991.64
2018-01-01T00:16:35.791Z,991.53
2018-01-01T00:17:16.576Z,991.73
2018-01-01T00:17:57.117Z,991.78
2018-01-01T00:18:38.141Z,991.76
2018-01-01T00:19:18.681Z,991.83
2018-01-01T00:19:59.211Z,991.74
2018-01-01T00:20:39.693Z,991.72
2018-01-01T00:21:20.401Z,991.73
2018-01-01T00:22:00.970Z,991.6
2018-01-01T00:22:41.617Z,991.73
2018-01-01T00:23:22.391Z,991.67
2018-01-01T00:24:02.926Z,991.59
2018-01-01T00:24:43.382Z,991.59
2018-01-01T00:25:23.908Z,991.6
2018-01-01T00:27:39.511Z,991.55
2018-01-01T00:28:19.911Z,991.51
2018-01-01T00:29:00.240Z,991.38
2018-01-01T00:29:40.804Z,991.52
2018-01-01T00:30:21.298Z,991.46
2018-01-01T00:31:01.622Z,991.35
2018-01-01T00:31:42.481Z,991.35
2018-01-01T00:32:23.140Z,991.44
2018-01-01T00:33:03.529Z,991.57
2018-01-01T00:33:44.143Z,991.52
2018-01-01T00:34:24.811Z,991.49
2018-01-01T00:35:05.684Z,991.45
2018-01-01T00:35:46.040Z,991.26
2018-01-01T00:36:26.594Z,991.3
2018-01-01T00:37:06.940Z,990.69
2018-01-01T00:37:47.841Z,991.26
2018-01-01T00:38:28.058Z,991.28
2018-01-01T00:39:08.537Z,990.94
2018-01-01T00:39:48.933Z,990.98
2018-01-01T00:40:29.628Z,991.15
2018-01-01T00:41:10.252Z,991.23
2018-01-01T00:41:50.694Z,991.12
2018-01-01T00:42:31.452Z,990.99
2018-01-01T00:43:11.953Z,991.23
2018-01-01T00:43:52.556Z,991.18
2018-01-01T00:44:32.923Z,991.36
2018-01-01T00:45:13.344Z,991.19
2018-01-01T00:45:53.699Z,991.17
2018-01-01T00:46:34.381Z,991.23
2018-01-01T00:47:14.852Z,991.17
2018-01-01T00:47:55.263Z,991.29
2018-01-01T00:48:36.472Z,991.33
2018-01-01T00:49:17.297Z,991.39
2018-01-01T00:49:57.768Z,991.36
2018-01-01T00:50:38.574Z,991.27
2018-01-01T00:51:19.093Z,991.34
2018-01-01T00:51:59.580Z,991.27
2018-01-01T00:52:40.133Z,991.27
2018-01-01T00:53:20.729Z,991.26
2018-01-01T00:54:01.787Z,991.29
2018-01-01T00:54:41.996Z,991.31
2018-01-01T00:55:23.252Z,991.28
2018-01-01T00:56:03.425Z,991.26
2018-01-01T00:56:43.857Z,991.29
2018-01-01T00:57:24.658Z,991.18
2018-01-01T00:58:05.396Z,991.34
2018-01-01T00:58:46.724Z,991.43
2018-01-01T00:59:27.096Z,991.38
2018-01-01T01:00:07.502Z,991.38
2018-01-01T01:00:48.605Z,991.32
2018-01-01T01:01:29.050Z,991.33
2018-01-01T01:02:09.514Z,991.52
2018-01-01T01:02:50.461Z,991.56
2018-01-01T01:03:31.408Z,991.46
2018-01-01T01:05:50.218Z,992.24
2018-01-01T01:06:32.324Z,992.32
2018-01-01T01:07:12.784Z,992.36
2018-01-01T01:07:53.187Z,991.81
2018-01-01T01:08:33.855Z,991.94
2018-01-01T01:09:14.487Z,992.23
2018-01-01T01:09:55.240Z,992.1
2018-01-01T01:10:35.671Z,992.09
2018-01-01T01:11:16.549Z,992.1
2018-01-01T01:11:58.389Z,992.13
2018-01-01T01:12:39.515Z,991.92
2018-01-01T01:13:20.286Z,992.03
2018-01-01T01:14:01.014Z,992.05
2018-01-01T01:14:41.549Z,991.77
2018-01-01T01:15:22.083Z,992.01
2018-01-01T01:16:02.797Z,991.98
2018-01-01T01:16:43.916Z,991.95
2018-01-01T01:17:23.665Z,992.13
2018-01-01T01:18:04.514Z,991.9
2018-01-01T01:18:44.926Z,992.02
2018-01-01T01:19:25.285Z,991.92
2018-01-01T01:20:06.222Z,991.84
2018-01-01T01:20:48.262Z,991.86
2018-01-01T01:21:28.823Z,991.77
2018-01-01T01:22:09.765Z,991.66
2018-01-01T01:22:50.523Z,991.69
2018-01-01T01:23:31.017Z,991.82
2018-01-01T01:24:12.101Z,991.83
2018-01-01T01:24:52.805Z,991.81
2018-01-01T01:25:33.786Z,991.99
2018-01-01T01:26:14.611Z,991.91
2018-01-01T01:26:55.371Z,992
2018-01-01T01:27:36.527Z,991.92
2018-01-01T01:28:17.337Z,991.99
2018-01-01T01:28:57.766Z,991.96
2018-01-01T01:29:38.442Z,991.97
2018-01-01T01:30:19.077Z,991.97
2018-01-01T01:30:59.562Z,992.04
2018-01-01T01:31:40.180Z,991.98
2018-01-01T01:32:21.210Z,992.02
2018-01-01T01:33:02.035Z,992.08
2018-01-01T01:33:42.446Z,992.14
2018-01-01T01:34:23.043Z,992.12
2018-01-01T01:35:03.458Z,992.14
2018-01-01T01:35:44.173Z,992.18
2018-01-01T01:36:24.734Z,992.1
2018-01-01T01:37:05.368Z,992.02
2018-01-01T01:37:45.798Z,992.03
2018-01-01T01:38:26.875Z,991.99
2018-01-01T01:39:07.795Z,991.99
2018-01-01T01:39:48.866Z,991.93
2018-01-01T01:40:30.078Z,991.95
2018-01-01T01:41:12.588Z,992.02
2018-01-01T01:41:53.104Z,991.94
2018-01-01T01:42:35.624Z,991.91
2018-01-01T01:43:16.159Z,991.97
2018-01-01T01:43:56.911Z,991.85
2018-01-01T01:44:37.578Z,991.88
2018-01-01T01:45:18.373Z,991.82
2018-01-01T01:45:59.021Z,991.83
2018-01-01T01:46:40.233Z,991.78
2018-01-01T01:47:20.410Z,991.72
2018-01-01T01:48:00.978Z,991.81
2018-01-01T01:48:41.990Z,991.73
2018-01-01T01:49:23.034Z,991.75
2018-01-01T01:50:03.931Z,991.85
2018-01-01T01:50:44.274Z,991.92
2018-01-01T01:51:24.852Z,991.86
2018-01-01T01:52:05.317Z,991.99
2018-01-01T01:52:45.942Z,991.8
2018-01-01T01:54:48.135Z,991.91
2018-01-01T01:56:49.220Z,991.75
2018-01-01T01:57:29.265Z,991.7
2018-01-01T01:58:09.686Z,991.74
2018-01-01T01:58:50.283Z,991.72
2018-01-01T01:59:31.023Z,991.78
2018-01-01T02:00:11.929Z,991.86
2018-01-01T02:00:52.274Z,991.9
2018-01-01T02:01:33.029Z,991.81
2018-01-01T02:03:52.753Z,991.89
2018-01-01T02:04:32.916Z,991.86
2018-01-01T02:05:14.108Z,991.92
2018-01-01T02:05:54.511Z,991.88
2018-01-01T02:06:35.694Z,991.93
2018-01-01T02:07:17.425Z,991.9
2018-01-01T02:07:57.889Z,991.96
2018-01-01T02:08:38.320Z,991.74
2018-01-01T02:09:19.141Z,991.81
2018-01-01T02:09:59.593Z,991.85
2018-01-01T02:10:39.950Z,991.88
2018-01-01T02:11:20.887Z,991.83
2018-01-01T02:12:01.299Z,991.95
2018-01-01T02:12:41.652Z,991.77
2018-01-01T02:13:22.005Z,991.9
2018-01-01T02:14:02.407Z,991.93
2018-01-01T02:14:43.056Z,991.7
2018-01-01T02:15:23.567Z,991.9
2018-01-01T02:16:03.899Z,991.9
2018-01-01T02:16:44.710Z,991.83
2018-01-01T02:17:25.567Z,991.85
2018-01-01T02:18:06.067Z,991.83
2018-01-01T02:18:46.647Z,991.85
2018-01-01T02:19:27.010Z,991.79
2018-01-01T02:20:07.782Z,991.77
2018-01-01T02:20:48.353Z,991.76
2018-01-01T02:21:29.000Z,991.71
2018-01-01T02:22:09.159Z,991.8
2018-01-01T02:22:49.850Z,991.72
2018-01-01T02:23:30.937Z,991.74
2018-01-01T02:24:11.371Z,991.86
2018-01-01T02:24:52.317Z,991.83
2018-01-01T02:25:32.857Z,991.77
2018-01-01T02:26:13.448Z,991.93
2018-01-01T02:26:54.185Z,991.98
2018-01-01T02:27:34.598Z,991.86
2018-01-01T02:28:15.121Z,991.91
2018-01-01T02:28:55.617Z,991.94
2018-01-01T02:29:36.733Z,991.91
2018-01-01T02:30:17.566Z,991.92
2018-01-01T02:30:58.080Z,991.94
2018-01-01T02:31:38.530Z,991.9
2018-01-01T02:32:19.286Z,991.66
2018-01-01T02:32:59.709Z,992
2018-01-01T02:33:40.402Z,991.76
2018-01-01T02:34:20.976Z,991.99
2018-01-01T02:35:01.366Z,992.02
2018-01-01T02:35:42.334Z,991.99
2018-01-01T02:36:23.016Z,991.92
2018-01-01T02:37:03.459Z,992.05
2018-01-01T02:37:43.778Z,991.99
2018-01-01T02:38:24.215Z,991.96
2018-01-01T02:39:04.699Z,991.88
2018-01-01T02:39:45.150Z,991.9
2018-01-01T02:40:25.625Z,992.06
2018-01-01T02:41:06.113Z,992.02
2018-01-01T02:41:46.916Z,992.09
2018-01-01T02:42:27.330Z,992.04
2018-01-01T02:43:08.061Z,992.06
2018-01-01T02:43:48.615Z,992.05
2018-01-01T02:44:29.086Z,991.96
2018-01-01T02:45:09.728Z,991.84
2018-01-01T02:45:50.214Z,991.95
2018-01-01T02:46:30.564Z,992
2018-01-01T02:47:11.127Z,991.83
2018-01-01T02:47:51.659Z,991.97
2018-01-01T02:48:31.952Z,992.1
2018-01-01T02:49:13.017Z,992.13
2018-01-01T02:49:53.519Z,992.12
2018-01-01T02:50:33.965Z,992.11
2018-01-01T02:51:14.367Z,992.26
2018-01-01T02:51:54.806Z,992.13
2018-01-01T02:52:35.349Z,991.96
2018-01-01T02:53:16.179Z,992.13
2018-01-01T02:53:56.604Z,992.08
2018-01-01T02:54:37.130Z,991.94
2018-01-01T02:55:17.602Z,992.11
2018-01-01T02:55:58.409Z,991.98
2018-01-01T02:56:39.203Z,992.07
2018-01-01T02:57:19.578Z,992.07
2018-01-01T02:57:59.965Z,992.15
2018-01-01T02:58:40.416Z,992.24
2018-01-01T02:59:20.847Z,992.17
2018-01-01T03:00:01.540Z,992.13
2018-01-01T03:00:41.906Z,992.18
2018-01-01T03:01:22.322Z,992.04
2018-01-01T03:02:03.073Z,992.16
2018-01-01T03:02:43.433Z,992.25
2018-01-01T03:03:24.611Z,992.13
2018-01-01T03:04:05.598Z,992.2
2018-01-01T03:04:46.058Z,992.21
2018-01-01T03:05:26.647Z,992.33
2018-01-01T03:06:07.019Z,992.14
2018-01-01T03:06:47.431Z,992.29
2018-01-01T03:07:27.797Z,992.22
2018-01-01T03:08:08.545Z,992.27
2018-01-01T03:08:48.751Z,992.36
2018-01-01T03:09:29.152Z,992.25
2018-01-01T03:10:09.587Z,992.2
2018-01-01T03:10:50.679Z,992.23
2018-01-01T03:11:30.788Z,992.29
2018-01-01T03:12:11.282Z,992.24
2018-01-01T03:12:52.307Z,992.22
2018-01-01T03:13:32.591Z,992.25
2018-01-01T03:14:13.061Z,992.43
2018-01-01T03:14:53.593Z,992.39
2018-01-01T03:15:34.697Z,992.19
2018-01-01T03:16:15.080Z,992.4
2018-01-01T03:16:55.562Z,992.19
2018-01-01T03:17:36.149Z,992.34
2018-01-01T03:18:17.099Z,992.38
2018-01-01T03:18:57.086Z,992.37
2018-01-01T03:19:37.829Z,992.31
2018-01-01T03:20:18.051Z,992.24
2018-01-01T03:20:58.457Z,992.33
2018-01-01T03:21:39.773Z,992.1
2018-01-01T03:22:20.344Z,992.29
2018-01-01T03:23:00.778Z,992.29
2018-01-01T03:23:41.159Z,992.39
2018-01-01T03:24:22.010Z,992.41
2018-01-01T03:25:02.614Z,992.21
2018-01-01T03:25:44.020Z,992.3
2018-01-01T03:26:24.403Z,992.37
2018-01-01T03:27:04.919Z,992.35
2018-01-01T03:27:45.589Z,992.36
2018-01-01T03:28:26.229Z,992.33
2018-01-01T03:29:06.778Z,992.35
2018-01-01T03:29:47.466Z,992.21
2018-01-01T03:30:27.720Z,992.36
2018-01-01T03:31:08.154Z,992.47
2018-01-01T03:31:49.485Z,992.2
2018-01-01T03:32:29.771Z,992.24
2018-01-01T03:33:10.345Z,992.24
2018-01-01T03:33:50.572Z,992.29
2018-01-01T03:34:31.056Z,992.35
2018-01-01T03:35:11.452Z,992.3
2018-01-01T03:35:52.156Z,992.33
2018-01-01T03:36:32.625Z,992.31
2018-01-01T03:37:13.249Z,992.4
2018-01-01T03:37:54.178Z,992.38
2018-01-01T03:38:35.196Z,992.35
2018-01-01T03:39:15.548Z,992.36
2018-01-01T03:39:56.119Z,992.7
2018-01-01T03:40:36.764Z,992.63
2018-01-01T03:41:17.568Z,992.68
2018-01-01T03:41:58.141Z,992.42
2018-01-01T03:42:38.716Z,992.31
2018-01-01T03:43:20.086Z,992.34
2018-01-01T03:44:00.067Z,992.56
2018-01-01T03:44:40.495Z,992.72
2018-01-01T03:45:20.940Z,992.56
2018-01-01T03:46:01.339Z,992.58
2018-01-01T03:48:05.692Z,992.61
2018-01-01T03:48:46.300Z,992.36
2018-01-01T03:49:26.381Z,992.38
2018-01-01T03:50:06.736Z,992.59
2018-01-01T03:50:47.400Z,992.49
2018-01-01T03:51:27.881Z,992.92
2018-01-01T03:52:08.616Z,992.29
2018-01-01T03:52:49.421Z,992.77
2018-01-01T03:53:29.830Z,992.62
2018-01-01T03:54:10.305Z,992.71
2018-01-01T03:54:51.130Z,992.68
2018-01-01T03:55:31.740Z,992.71
2018-01-01T03:56:14.239Z,992.48
2018-01-01T03:56:54.848Z,992.75
2018-01-01T03:57:35.654Z,992.7
2018-01-01T03:58:16.239Z,992.73
2018-01-01T03:58:57.529Z,992.7
2018-01-01T03:59:38.123Z,992.67
2018-01-01T04:00:18.626Z,992.72
2018-01-01T04:00:59.532Z,992.63
2018-01-01T04:01:39.971Z,992.66
2018-01-01T04:02:20.339Z,992.53
2018-01-01T04:03:01.132Z,992.74
2018-01-01T04:46:24.564Z,992.82
2018-01-01T04:47:12.650Z,992.81
2018-01-01T04:47:53.024Z,992.87
2018-01-01T04:48:37.766Z,992.83
2018-01-01T04:49:22.985Z,992.79
2018-01-01T04:50:03.442Z,992.77
2018-01-01T04:50:43.827Z,992.78
2018-01-01T04:51:26.234Z,992.97
2018-01-01T04:52:10.797Z,992.98
2018-01-01T04:52:54.581Z,992.84
2018-01-01T04:53:35.312Z,992.95
2018-01-01T04:54:16.791Z,992.87
2018-01-01T04:55:01.413Z,992.97
2018-01-01T04:55:45.764Z,992.84
2018-01-01T04:56:26.088Z,992.78
2018-01-01T04:57:06.469Z,993.03
2018-01-01T04:57:46.895Z,992.86
2018-01-01T04:58:27.407Z,993.09
2018-01-01T04:59:13.226Z,992.95
2018-01-01T05:01:26.784Z,993.06
2018-01-01T05:02:07.893Z,993.2
2018-01-01T05:02:48.678Z,993.03
2018-01-01T05:03:29.089Z,993.16
2018-01-01T05:04:09.493Z,993.15
2018-01-01T05:04:50.034Z,993.17
2018-01-01T05:05:30.409Z,993.21
2018-01-01T05:06:11.691Z,993.21
2018-01-01T05:06:52.057Z,993.24
2018-01-01T05:07:32.444Z,993.26
2018-01-01T05:08:13.457Z,992.85
2018-01-01T05:08:53.795Z,993.25
2018-01-01T05:09:34.527Z,993.1
2018-01-01T05:10:15.219Z,993.03
2018-01-01T05:10:55.680Z,993.06
2018-01-01T05:11:36.219Z,993.31
2018-01-01T05:12:17.077Z,993.16
2018-01-01T05:12:57.517Z,993.2
2018-01-01T05:13:37.891Z,993.29
2018-01-01T05:14:18.447Z,993.3
2018-01-01T05:14:59.522Z,993.33
2018-01-01T05:15:39.672Z,993.19
2018-01-01T05:16:20.411Z,993.31
2018-01-01T05:17:01.738Z,993.31
2018-01-01T05:17:42.074Z,993.28
2018-01-01T05:18:22.493Z,993.17
2018-01-01T05:19:03.085Z,992.99
2018-01-01T05:19:43.756Z,993.28
2018-01-01T05:20:24.573Z,993.29
2018-01-01T05:21:05.404Z,993.2
2018-01-01T05:21:45.728Z,993.23
2018-01-01T05:22:26.434Z,993.26
2018-01-01T05:23:07.385Z,993.27
2018-01-01T05:23:47.768Z,993.32
2018-01-01T05:24:28.258Z,993.35
2018-01-01T05:25:08.638Z,993.32
2018-01-01T05:25:49.316Z,993.42
2018-01-01T05:26:30.145Z,993.46
2018-01-01T05:27:10.516Z,993.37
2018-01-01T05:27:51.955Z,993.44
2018-01-01T05:28:32.324Z,993.43
2018-01-01T05:29:12.827Z,993.48
2018-01-01T05:29:53.546Z,993.49
2018-01-01T05:30:34.332Z,993.41
2018-01-01T05:31:14.928Z,993.51
2018-01-01T05:31:55.474Z,993.45
2018-01-01T05:32:36.274Z,993.45
2018-01-01T05:33:16.518Z,993.52
2018-01-01T05:33:56.984Z,993.56
2018-01-01T05:34:37.462Z,993.54
2018-01-01T05:35:18.057Z,993.53
2018-01-01T05:35:58.710Z,993.51
2018-01-01T05:36:38.958Z,993.55
2018-01-01T05:37:19.338Z,993.37
2018-01-01T05:38:00.271Z,993.57
2018-01-01T05:38:41.715Z,993.57
2018-01-01T05:39:22.311Z,993.56
2018-01-01T05:40:02.971Z,993.62
2018-01-01T05:40:43.707Z,993.6
2018-01-01T05:41:24.250Z,993.62
2018-01-01T05:42:04.426Z,993.38
2018-01-01T05:42:45.047Z,993.53
2018-01-01T05:43:26.112Z,993.68
2018-01-01T05:44:06.164Z,993.6
2018-01-01T05:44:47.219Z,993.63
2018-01-01T05:45:27.911Z,993.56
2018-01-01T05:46:08.391Z,993.57
2018-01-01T05:46:48.741Z,993.62
2018-01-01T05:47:29.814Z,993.71
2018-01-01T05:48:10.620Z,993.82
2018-01-01T05:48:51.235Z,993.7
2018-01-01T05:49:31.945Z,993.54
2018-01-01T05:50:12.180Z,993.69
2018-01-01T05:50:53.157Z,993.46
2018-01-01T05:51:33.556Z,993.73
2018-01-01T05:52:14.095Z,993.65
2018-01-01T05:52:54.432Z,993.45
2018-01-01T05:53:34.919Z,993.58
2018-01-01T05:54:15.443Z,993.62
2018-01-01T05:54:56.377Z,993.77
2018-01-01T05:55:36.697Z,993.74
2018-01-01T05:56:17.627Z,993.9
2018-01-01T05:56:57.993Z,993.76
2018-01-01T05:57:38.677Z,993.78
2018-01-01T05:58:19.128Z,993.83
2018-01-01T05:58:59.722Z,993.86
2018-01-01T05:59:40.402Z,993.88
2018-01-01T06:00:20.850Z,993.87
2018-01-01T06:01:01.424Z,993.86
2018-01-01T06:01:43.332Z,993.98
2018-01-01T06:02:24.310Z,994.01
2018-01-01T06:03:04.707Z,993.95
2018-01-01T06:03:45.140Z,993.99
2018-01-01T06:04:26.021Z,994.09
2018-01-01T06:05:06.886Z,994.13
2018-01-01T06:05:47.561Z,994.2
2018-01-01T06:06:28.068Z,994.12
2018-01-01T06:07:08.523Z,994.15
2018-01-01T06:07:49.037Z,994.19
2018-01-01T06:08:29.788Z,994.09
2018-01-01T06:09:10.113Z,994.12
2018-01-01T06:11:04.209Z,994.19
2018-01-01T06:11:44.589Z,994.19
2018-01-01T06:12:25.109Z,994.28
2018-01-01T06:13:06.186Z,994.14
2018-01-01T06:13:46.100Z,994.25
2018-01-01T06:14:26.924Z,994.27
2018-01-01T06:15:07.564Z,994.36
2018-01-01T06:15:48.061Z,994.32
2018-01-01T06:16:28.514Z,994.31
2018-01-01T06:17:08.969Z,994.32
2018-01-01T06:20:29.864Z,994.4
2018-01-01T06:21:10.677Z,994.39
2018-01-01T06:21:51.337Z,994.4
2018-01-01T06:22:31.898Z,994.37
2018-01-01T06:23:12.788Z,994.35
2018-01-01T06:23:53.903Z,994.35
2018-01-01T06:24:34.621Z,994.26
2018-01-01T06:25:15.816Z,994.35
2018-01-01T06:25:56.589Z,994.31
2018-01-01T06:28:28.249Z,994.52
2018-01-01T06:29:08.924Z,994.38
2018-01-01T06:29:49.400Z,994.41
2018-01-01T06:30:29.923Z,994.4
2018-01-01T06:31:10.179Z,994.39
2018-01-01T06:31:51.269Z,994.26
2018-01-01T06:32:31.924Z,994.42
2018-01-01T06:33:12.779Z,994.51
2018-01-01T06:33:53.273Z,994.46
2018-01-01T06:34:33.647Z,994.45
2018-01-01T06:35:14.316Z,994.36
2018-01-01T06:35:54.853Z,994.48
2018-01-01T06:36:36.063Z,994.56
2018-01-01T06:37:16.858Z,994.4
2018-01-01T06:38:00.032Z,994.35
2018-01-01T06:38:40.778Z,994.4
2018-01-01T06:40:39.927Z,994.35
2018-01-01T06:41:23.641Z,994.46
2018-01-01T06:42:04.219Z,994.5
2018-01-01T06:42:44.984Z,994.5
2018-01-01T06:43:25.765Z,994.52
2018-01-01T06:44:06.240Z,994.58
2018-01-01T06:44:46.834Z,994.55
2018-01-01T06:45:27.258Z,994.54
2018-01-01T06:46:09.281Z,994.54
2018-01-01T06:46:49.807Z,994.56
2018-01-01T06:47:30.504Z,994.56
2018-01-01T06:48:10.896Z,994.53
2018-01-01T06:48:52.147Z,994.52
2018-01-01T06:49:31.889Z,994.5
2018-01-01T06:50:12.435Z,994.56
2018-01-01T06:50:53.021Z,994.58
2018-01-01T06:51:34.373Z,994.51
2018-01-01T06:52:14.899Z,994.59
2018-01-01T06:52:55.796Z,994.58
2018-01-01T06:53:36.536Z,994.51
2018-01-01T06:54:17.450Z,994.61
2018-01-01T06:54:59.177Z,994.53
2018-01-01T06:55:39.509Z,994.5
2018-01-01T06:56:20.255Z,994.51
2018-01-01T06:57:02.468Z,994.53
2018-01-01T06:57:42.475Z,994.55
2018-01-01T06:58:23.194Z,994.57
2018-01-01T06:59:03.858Z,994.59
2018-01-01T06:59:44.637Z,994.56
2018-01-01T07:00:25.865Z,994.6
2018-01-01T07:01:06.306Z,994.65
2018-01-01T07:01:47.309Z,994.7
2018-01-01T07:02:28.346Z,994.69
2018-01-01T07:03:08.951Z,994.71
2018-01-01T07:03:49.336Z,994.7
2018-01-01T07:04:29.894Z,994.68
2018-01-01T07:05:11.225Z,994.68
2018-01-01T07:05:51.966Z,994.58
2018-01-01T07:06:32.294Z,994.72
2018-01-01T07:07:13.220Z,994.71
2018-01-01T07:07:53.859Z,994.7
2018-01-01T07:08:34.370Z,994.73
2018-01-01T07:09:15.104Z,994.72
2018-01-01T07:09:55.513Z,994.82
2018-01-01T07:10:36.074Z,994.77
2018-01-01T07:11:16.684Z,994.8
2018-01-01T07:11:57.110Z,994.82
2018-01-01T07:12:38.457Z,994.6
2018-01-01T07:13:19.232Z,994.78
2018-01-01T07:13:59.472Z,994.69
2018-01-01T07:14:40.156Z,994.8
2018-01-01T07:15:20.580Z,994.82
2018-01-01T07:16:01.308Z,994.82
2018-01-01T07:16:41.915Z,994.83
2018-01-01T07:17:22.444Z,994.79
2018-01-01T07:18:03.172Z,994.89
2018-01-01T07:18:44.571Z,994.8
2018-01-01T07:19:25.388Z,994.82
2018-01-01T07:20:05.792Z,994.96
2018-01-01T07:20:46.293Z,994.89
2018-01-01T07:21:26.816Z,994.97
2018-01-01T07:22:07.091Z,995.02
2018-01-01T07:22:47.815Z,994.97
2018-01-01T07:23:28.421Z,995.01
2018-01-01T07:24:08.998Z,995.11
2018-01-01T07:24:49.918Z,995.03
2018-01-01T07:25:31.500Z,994.96
2018-01-01T07:26:11.876Z,995.04
2018-01-01T07:26:52.252Z,994.95
2018-01-01T07:27:32.798Z,994.92
2018-01-01T07:28:13.413Z,994.99
2018-01-01T07:28:53.844Z,995
2018-01-01T07:29:35.689Z,995.07
2018-01-01T07:30:16.054Z,995.03
2018-01-01T07:30:56.515Z,995.07
2018-01-01T07:31:37.205Z,995
2018-01-01T07:32:18.112Z,995.02
2018-01-01T07:32:59.175Z,994.93
2018-01-01T07:33:39.565Z,994.96
2018-01-01T07:34:19.932Z,994.93
2018-01-01T07:35:00.526Z,994.99
2018-01-01T07:35:41.134Z,995
2018-01-01T07:36:21.845Z,995
2018-01-01T07:37:02.369Z,995.01
2018-01-01T07:37:43.405Z,994.97
2018-01-01T07:38:23.687Z,995.05
2018-01-01T07:39:04.595Z,994.96
2018-01-01T07:39:45.237Z,995.02
2018-01-01T07:40:25.731Z,995.07
2018-01-01T07:41:06.310Z,995.01
2018-01-01T07:41:46.892Z,995.07
2018-01-01T07:42:27.286Z,995.09
2018-01-01T07:43:07.760Z,994.9
2018-01-01T07:43:49.121Z,995.07
2018-01-01T07:44:29.682Z,995.1
2018-01-01T07:45:10.396Z,995.04
2018-01-01T07:45:51.894Z,995.1
2018-01-01T07:46:32.475Z,995.08
2018-01-01T07:47:12.886Z,995.11
2018-01-01T07:47:53.874Z,995.06
2018-01-01T07:48:35.734Z,994.97
2018-01-01T07:49:16.193Z,995.07
2018-01-01T07:49:56.742Z,995.09
2018-01-01T07:50:37.183Z,995.06
2018-01-01T07:51:17.745Z,995.04
2018-01-01T07:51:58.051Z,995.06
2018-01-01T07:52:38.692Z,995.01
2018-01-01T07:53:19.184Z,995.01
2018-01-01T07:53:59.616Z,995.08
2018-01-01T07:54:40.269Z,995.07
2018-01-01T07:55:21.552Z,995.19
2018-01-01T07:56:01.922Z,995.18
2018-01-01T07:56:42.784Z,995.12
2018-01-01T07:57:23.937Z,995.23
2018-01-01T07:58:04.160Z,995.25
2018-01-01T07:58:44.594Z,995.18
2018-01-01T07:59:25.420Z,995.2
2018-01-01T08:00:05.998Z,995.2
2018-01-01T08:00:46.719Z,995.16
2018-01-01T08:01:27.665Z,995.14
2018-01-01T08:02:07.973Z,995.13
2018-01-01T08:02:48.709Z,995.26
2018-01-01T08:03:29.508Z,995.1
2018-01-01T08:04:10.400Z,995.27
2018-01-01T08:04:50.654Z,995.27
2018-01-01T08:05:31.444Z,995.32
2018-01-01T08:06:12.283Z,995.26
2018-01-01T08:06:52.669Z,995.27
2018-01-01T08:07:33.184Z,995.3
2018-01-01T08:08:13.856Z,995.27
2018-01-01T08:08:54.639Z,995.23
2018-01-01T08:09:35.140Z,995.32
2018-01-01T08:10:15.567Z,995.3
2018-01-01T08:10:56.185Z,995.34
2018-01-01T08:11:37.312Z,995.36
2018-01-01T08:12:17.968Z,995.36
2018-01-01T08:12:59.209Z,995.36
2018-01-01T08:13:39.398Z,995.38
2018-01-01T08:14:19.762Z,995.38
2018-01-01T08:15:00.420Z,995.36
2018-01-01T08:15:40.867Z,995.48
2018-01-01T08:16:21.277Z,995.39
2018-01-01T08:17:01.656Z,995.45
2018-01-01T08:17:42.073Z,995.44
2018-01-01T08:18:22.856Z,995.5
2018-01-01T08:19:03.585Z,995.42
2018-01-01T08:19:44.526Z,995.52
2018-01-01T08:20:25.576Z,995.51
2018-01-01T08:21:06.328Z,995.46
2018-01-01T08:21:46.909Z,995.53
2018-01-01T08:22:27.255Z,995.6
2018-01-01T08:23:07.728Z,995.61
2018-01-01T08:23:48.443Z,995.57
2018-01-01T08:24:30.071Z,995.63
2018-01-01T08:25:10.819Z,995.67
2018-01-01T08:25:51.365Z,995.58
2018-01-01T08:26:32.792Z,995.68
2018-01-01T08:27:13.489Z,995.67
2018-01-01T08:27:53.954Z,995.7
2018-01-01T08:28:34.341Z,995.73
2018-01-01T08:29:14.758Z,995.74
2018-01-01T08:29:55.784Z,995.71
2018-01-01T08:30:36.130Z,995.75
2018-01-01T08:31:16.634Z,995.7
2018-01-01T08:31:57.894Z,995.78
2018-01-01T08:32:38.192Z,995.79
2018-01-01T08:33:19.521Z,995.79
2018-01-01T08:33:59.987Z,995.77
2018-01-01T08:34:40.508Z,995.8
2018-01-01T08:35:21.778Z,995.83
2018-01-01T08:36:02.530Z,995.8
2018-01-01T08:36:42.851Z,995.76
2018-01-01T08:37:23.367Z,995.73
2018-01-01T08:38:03.687Z,995.7
2018-01-01T08:38:44.347Z,995.67
2018-01-01T08:39:25.021Z,995.67
2018-01-01T08:40:05.500Z,995.56
2018-01-01T08:40:46.315Z,995.53
2018-01-01T08:41:26.460Z,995.54
2018-01-01T08:42:07.633Z,995.54
2018-01-01T08:42:47.993Z,995.44
2018-01-01T08:43:28.412Z,995.51
2018-01-01T08:44:09.210Z,995.58
2018-01-01T08:44:50.409Z,995.59
2018-01-01T08:45:31.286Z,995.51
2018-01-01T08:46:12.742Z,995.58
2018-01-01T08:46:53.913Z,995.49
2018-01-01T08:47:34.372Z,995.5
2018-01-01T08:48:15.318Z,995.56
2018-01-01T08:48:57.213Z,995.61
2018-01-01T08:49:38.647Z,995.61
2018-01-01T08:50:19.828Z,995.47
2018-01-01T08:51:00.538Z,995.57
2018-01-01T08:51:41.422Z,995.5
2018-01-01T08:52:21.945Z,995.55
2018-01-01T08:53:03.117Z,995.53
2018-01-01T08:53:43.547Z,995.43
2018-01-01T08:54:24.212Z,995.48
2018-01-01T08:55:04.581Z,995.46
2018-01-01T08:55:44.933Z,995.42
2018-01-01T08:56:25.756Z,995.41
2018-01-01T08:57:06.679Z,995.47
2018-01-01T08:57:54.242Z,995.48
2018-01-01T08:58:31.630Z,995.45
2018-01-01T08:59:12.867Z,995.46
2018-01-01T08:59:53.301Z,995.44
2018-01-01T09:00:34.003Z,995.41
2018-01-01T09:01:15.438Z,995.49
2018-01-01T09:01:55.868Z,995.53
2018-01-01T09:02:36.718Z,995.53
2018-01-01T09:03:18.263Z,995.51
2018-01-01T09:03:59.082Z,995.46
2018-01-01T09:04:40.602Z,995.45
2018-01-01T09:05:20.793Z,995.43
2018-01-01T09:06:02.072Z,995.48
2018-01-01T09:06:46.259Z,995.52
2018-01-01T09:07:27.128Z,995.52
2018-01-01T09:08:09.908Z,995.48
2018-01-01T09:08:49.897Z,995.39
2018-01-01T09:09:30.410Z,995.33
2018-01-01T09:10:10.920Z,995.36
2018-01-01T09:10:54.001Z,995.42
2018-01-01T09:11:34.838Z,995.42
2018-01-01T09:12:16.521Z,995.46
2018-01-01T09:12:56.548Z,995.39
2018-01-01T09:13:37.283Z,995.23
2018-01-01T09:14:17.796Z,995.37
2018-01-01T09:14:58.833Z,995.3
2018-01-01T09:15:40.102Z,995.34
2018-01-01T09:16:20.488Z,995.35
2018-01-01T09:17:00.895Z,995.35
2018-01-01T09:17:41.500Z,995.36
2018-01-01T09:18:21.985Z,995.32
2018-01-01T09:19:02.676Z,995.29
2018-01-01T09:19:44.041Z,995.27
2018-01-01T09:20:24.403Z,995.28
2018-01-01T09:21:04.841Z,995.38
2018-01-01T09:21:45.230Z,995.41
2018-01-01T09:22:25.701Z,995.37
2018-01-01T09:23:06.238Z,995.36
2018-01-01T09:23:46.688Z,995.32
2018-01-01T09:24:27.158Z,995.38
2018-01-01T09:25:08.123Z,995.31
2018-01-01T09:25:48.508Z,995.31
2018-01-01T09:26:28.958Z,995.26
2018-01-01T09:27:09.400Z,995.24
2018-01-01T09:27:50.364Z,995.18
2018-01-01T09:28:30.832Z,995.2
2018-01-01T09:29:11.883Z,995.18
2018-01-01T09:29:51.646Z,995.14
2018-01-01T09:30:32.043Z,995.11